PWSweather.com
Personal Weather Stations
Station Observations
KOMOKA2
Middlesex Centre, Komoka, ON N0L 1R0

Middlesex CentreKomoka, ON N0L 1R0

Lat: 42.9542444, Lon: -81.4348861

Elevation: 805

Station Type: Davis VP2 w/ Vue Console

High Low Average
Temperature 68.3°F20.2°C 44.6°F7.0°C 59.9°F15.5°C
Dew Point 52.0°F11.1°C 37.0°F2.8°C 43.9°F6.6°C
Winds 7.2 mph 11.6 kmh Calm Calm 2.0 mph NW3.2 kmh NW
Wind Gusts 18.0 mph29.0 kmh -- 6.0 mph9.7 kmh
Humidity 77% 34% 58%
Pressure 29.97 in1014.9 mb 29.70 in1005.8 mb -
Precipitation 0.02 in0.5 mm - -
Hour Temp Dew Point Humidity Winds Wind Gusts Pressure Precip Precip Rate Daily Precip Total
12:00 AM 64.6°F18.1°C 51.0°F10.6°C 62% 2.0 mph WSW3.2 kmh WSW 5.0 mph8.0 kmh 29.73 in1006.8 mb 0.00 in0.0 mm 0.00 in0.0 mm 0.00 in0.0 mm
12:05 AM 64.6°F18.1°C 51.0°F10.6°C 62% 2.4 mph WNW3.9 kmh WNW 5.0 mph8.0 kmh 29.73 in1006.8 mb 0.00 in0.0 mm 0.00 in0.0 mm 0.00 in0.0 mm
12:10 AM 64.7°F18.2°C 51.0°F10.6°C 62% 2.1 mph SW3.4 kmh SW 5.0 mph8.0 kmh 29.73 in1006.8 mb 0.00 in0.0 mm 0.00 in0.0 mm 0.00 in0.0 mm
12:15 AM 64.8°F18.2°C 51.0°F10.6°C 62% 2.1 mph WSW3.4 kmh WSW 6.0 mph9.7 kmh 29.73 in1006.8 mb 0.00 in0.0 mm 0.00 in0.0 mm 0.00 in0.0 mm
12:20 AM 65.0°F18.3°C 52.0°F11.1°C 62% 2.6 mph SW4.2 kmh SW 6.0 mph9.7 kmh 29.73 in1006.8 mb 0.00 in0.0 mm 0.00 in0.0 mm 0.00 in0.0 mm
12:25 AM 65.1°F18.4°C 51.0°F10.6°C 61% 2.4 mph SW3.9 kmh SW 6.0 mph9.7 kmh 29.73 in1006.8 mb 0.00 in0.0 mm 0.00 in0.0 mm 0.00 in0.0 mm
12:30 AM 65.0°F18.3°C 52.0°F11.1°C 62% 1.8 mph SW2.9 kmh SW 5.0 mph8.0 kmh 29.72 in1006.4 mb 0.00 in0.0 mm 0.00 in0.0 mm 0.00 in0.0 mm
12:35 AM 64.9°F18.3°C 51.0°F10.6°C 62% 1.2 mph SW1.9 kmh SW 3.0 mph4.8 kmh 29.71 in1006.1 mb 0.00 in0.0 mm 0.00 in0.0 mm 0.00 in0.0 mm
12:40 AM 64.8°F18.2°C 51.0°F10.6°C 62% 0.3 mph SW0.5 kmh SW 2.0 mph3.2 kmh 29.71 in1006.1 mb 0.00 in0.0 mm 0.00 in0.0 mm 0.00 in0.0 mm
12:45 AM 64.7°F18.2°C 51.0°F10.6°C 62% Calm Calm -- 29.71 in1006.1 mb 0.00 in0.0 mm 0.00 in0.0 mm 0.00 in0.0 mm
12:50 AM 64.6°F18.1°C 51.0°F10.6°C 62% 0.7 mph SW1.1 kmh SW 4.0 mph6.4 kmh 29.72 in1006.4 mb 0.00 in0.0 mm 0.00 in0.0 mm 0.00 in0.0 mm
12:55 AM 64.6°F18.1°C 51.0°F10.6°C 62% 1.5 mph SW2.4 kmh SW 4.0 mph6.4 kmh 29.72 in1006.4 mb 0.00 in0.0 mm 0.00 in0.0 mm 0.00 in0.0 mm
01:00 AM 64.7°F18.2°C 51.0°F10.6°C 62% 1.4 mph WSW2.3 kmh WSW 4.0 mph6.4 kmh 29.72 in1006.4 mb 0.00 in0.0 mm 0.00 in0.0 mm 0.00 in0.0 mm
01:05 AM 64.6°F18.1°C 51.0°F10.6°C 62% 1.1 mph WSW1.8 kmh WSW 5.0 mph8.0 kmh 29.72 in1006.4 mb 0.00 in0.0 mm 0.00 in0.0 mm 0.00 in0.0 mm
01:10 AM 64.7°F18.2°C 51.0°F10.6°C 62% 1.5 mph WSW2.4 kmh WSW 6.0 mph9.7 kmh 29.73 in1006.8 mb 0.00 in0.0 mm 0.00 in0.0 mm 0.00 in0.0 mm
01:15 AM 64.9°F18.3°C 51.0°F10.6°C 62% 2.1 mph SW3.4 kmh SW 4.0 mph6.4 kmh 29.72 in1006.4 mb 0.00 in0.0 mm 0.00 in0.0 mm 0.00 in0.0 mm
01:20 AM 65.1°F18.4°C 52.0°F11.1°C 62% 2.3 mph SW3.7 kmh SW 7.0 mph11.3 kmh 29.72 in1006.4 mb 0.00 in0.0 mm 0.00 in0.0 mm 0.00 in0.0 mm
01:25 AM 65.1°F18.4°C 52.0°F11.1°C 63% 1.9 mph WSW3.1 kmh WSW 7.0 mph11.3 kmh 29.72 in1006.4 mb 0.00 in0.0 mm 0.00 in0.0 mm 0.00 in0.0 mm
01:30 AM 65.1°F18.4°C 52.0°F11.1°C 63% 1.3 mph SW2.1 kmh SW 5.0 mph8.0 kmh 29.72 in1006.4 mb 0.00 in0.0 mm 0.00 in0.0 mm 0.00 in0.0 mm
01:35 AM 65.1°F18.4°C 52.0°F11.1°C 63% 1.3 mph SW2.1 kmh SW 3.0 mph4.8 kmh 29.72 in1006.4 mb 0.00 in0.0 mm 0.00 in0.0 mm 0.00 in0.0 mm
01:40 AM 65.2°F18.4°C 52.0°F11.1°C 63% 1.4 mph WSW2.3 kmh WSW 4.0 mph6.4 kmh 29.72 in1006.4 mb 0.00 in0.0 mm 0.00 in0.0 mm 0.00 in0.0 mm
01:45 AM 65.3°F18.5°C 52.0°F11.1°C 63% 1.2 mph WNW1.9 kmh WNW 4.0 mph6.4 kmh 29.72 in1006.4 mb 0.00 in0.0 mm 0.00 in0.0 mm 0.00 in0.0 mm
01:50 AM 65.3°F18.5°C 52.0°F11.1°C 63% 1.0 mph WSW1.6 kmh WSW 4.0 mph6.4 kmh 29.72 in1006.4 mb 0.00 in0.0 mm 0.00 in0.0 mm 0.00 in0.0 mm
01:55 AM 65.0°F18.3°C 52.0°F11.1°C 63% 1.5 mph WSW2.4 kmh WSW 4.0 mph6.4 kmh 29.71 in1006.1 mb 0.00 in0.0 mm 0.00 in0.0 mm 0.00 in0.0 mm
02:00 AM 64.7°F18.2°C 52.0°F11.1°C 64% 1.4 mph WSW2.3 kmh WSW 4.0 mph6.4 kmh 29.71 in1006.1 mb 0.00 in0.0 mm 0.00 in0.0 mm 0.00 in0.0 mm
02:05 AM 64.6°F18.1°C 52.0°F11.1°C 65% 0.5 mph W0.8 kmh W 2.0 mph3.2 kmh 29.70 in1005.8 mb 0.00 in0.0 mm 0.00 in0.0 mm 0.00 in0.0 mm
02:10 AM 64.4°F18.0°C 52.0°F11.1°C 65% 0.1 mph W0.2 kmh W 2.0 mph3.2 kmh 29.71 in1006.1 mb 0.00 in0.0 mm 0.00 in0.0 mm 0.00 in0.0 mm
02:15 AM 64.3°F17.9°C 52.0°F11.1°C 65% Calm Calm 2.0 mph3.2 kmh 29.71 in1006.1 mb 0.00 in0.0 mm 0.00 in0.0 mm 0.00 in0.0 mm
02:20 AM 64.3°F17.9°C 52.0°F11.1°C 65% 0.2 mph W0.3 kmh W 2.0 mph3.2 kmh 29.70 in1005.8 mb 0.00 in0.0 mm 0.00 in0.0 mm 0.00 in0.0 mm
02:25 AM 64.1°F17.8°C 52.0°F11.1°C 65% 0.4 mph WSW0.6 kmh WSW 2.0 mph3.2 kmh 29.70 in1005.8 mb 0.00 in0.0 mm 0.00 in0.0 mm 0.00 in0.0 mm
02:30 AM 64.0°F17.8°C 52.0°F11.1°C 66% 0.3 mph WSW0.5 kmh WSW 2.0 mph3.2 kmh 29.70 in1005.8 mb 0.00 in0.0 mm 0.00 in0.0 mm 0.00 in0.0 mm
02:35 AM 63.7°F17.6°C 52.0°F11.1°C 66% 0.2 mph WSW0.3 kmh WSW 3.0 mph4.8 kmh 29.70 in1005.8 mb 0.00 in0.0 mm 0.00 in0.0 mm 0.00 in0.0 mm
02:40 AM 63.7°F17.6°C 52.0°F11.1°C 66% 0.6 mph WSW1.0 kmh WSW 3.0 mph4.8 kmh 29.70 in1005.8 mb 0.00 in0.0 mm 0.00 in0.0 mm 0.00 in0.0 mm
02:45 AM 63.6°F17.6°C 52.0°F11.1°C 66% 0.5 mph WSW0.8 kmh WSW 2.0 mph3.2 kmh 29.70 in1005.8 mb 0.00 in0.0 mm 0.00 in0.0 mm 0.00 in0.0 mm
02:50 AM 63.5°F17.5°C 52.0°F11.1°C 67% Calm Calm 1.0 mph1.6 kmh 29.70 in1005.8 mb 0.00 in0.0 mm 0.00 in0.0 mm 0.00 in0.0 mm
02:55 AM 63.3°F17.4°C 52.0°F11.1°C 67% Calm Calm 1.0 mph1.6 kmh 29.70 in1005.8 mb 0.00 in0.0 mm 0.00 in0.0 mm 0.00 in0.0 mm
03:00 AM 63.1°F17.3°C 52.0°F11.1°C 67% 0.2 mph N0.3 kmh N 2.0 mph3.2 kmh 29.70 in1005.8 mb 0.00 in0.0 mm 0.00 in0.0 mm 0.00 in0.0 mm
03:05 AM 62.9°F17.2°C 52.0°F11.1°C 68% 0.2 mph N0.3 kmh N 2.0 mph3.2 kmh 29.70 in1005.8 mb 0.00 in0.0 mm 0.00 in0.0 mm 0.00 in0.0 mm
03:10 AM 62.8°F17.1°C 52.0°F11.1°C 68% Calm Calm 1.0 mph1.6 kmh 29.70 in1005.8 mb 0.00 in0.0 mm 0.00 in0.0 mm 0.00 in0.0 mm
03:15 AM 62.7°F17.1°C 52.0°F11.1°C 68% 0.3 mph N0.5 kmh N 2.0 mph3.2 kmh 29.70 in1005.8 mb 0.00 in0.0 mm 0.00 in0.0 mm 0.00 in0.0 mm
03:20 AM 62.6°F17.0°C 52.0°F11.1°C 68% 0.8 mph N1.3 kmh N 2.0 mph3.2 kmh 29.71 in1006.1 mb 0.00 in0.0 mm 0.00 in0.0 mm 0.00 in0.0 mm
03:25 AM 62.5°F16.9°C 52.0°F11.1°C 68% 0.8 mph N1.3 kmh N 4.0 mph6.4 kmh 29.71 in1006.1 mb 0.00 in0.0 mm 0.00 in0.0 mm 0.00 in0.0 mm
03:30 AM 62.5°F16.9°C 52.0°F11.1°C 68% 0.3 mph N0.5 kmh N 4.0 mph6.4 kmh 29.71 in1006.1 mb 0.00 in0.0 mm 0.00 in0.0 mm 0.00 in0.0 mm
03:35 AM 62.4°F16.9°C 52.0°F11.1°C 68% 0.3 mph N0.5 kmh N 4.0 mph6.4 kmh 29.71 in1006.1 mb 0.00 in0.0 mm 0.00 in0.0 mm 0.00 in0.0 mm
03:40 AM 62.4°F16.9°C 52.0°F11.1°C 68% 0.6 mph N1.0 kmh N 3.0 mph4.8 kmh 29.71 in1006.1 mb 0.00 in0.0 mm 0.00 in0.0 mm 0.00 in0.0 mm
03:45 AM 62.4°F16.9°C 52.0°F11.1°C 68% 0.4 mph N0.6 kmh N 2.0 mph3.2 kmh 29.72 in1006.4 mb 0.00 in0.0 mm 0.00 in0.0 mm 0.00 in0.0 mm
03:50 AM 62.4°F16.9°C 52.0°F11.1°C 68% 0.7 mph N1.1 kmh N 3.0 mph4.8 kmh 29.72 in1006.4 mb 0.00 in0.0 mm 0.00 in0.0 mm 0.00 in0.0 mm
03:55 AM 62.5°F16.9°C 52.0°F11.1°C 68% 1.4 mph N2.3 kmh N 5.0 mph8.0 kmh 29.72 in1006.4 mb 0.00 in0.0 mm 0.00 in0.0 mm 0.01 in0.3 mm
04:00 AM 62.4°F16.9°C 51.0°F10.6°C 67% 1.7 mph N2.7 kmh N 8.0 mph12.9 kmh 29.72 in1006.4 mb 0.00 in0.0 mm 0.00 in0.0 mm 0.01 in0.3 mm
04:05 AM 62.3°F16.8°C 51.0°F10.6°C 66% 2.0 mph N3.2 kmh N 8.0 mph12.9 kmh 29.71 in1006.1 mb 0.00 in0.0 mm 0.00 in0.0 mm 0.01 in0.3 mm
04:10 AM 62.3°F16.8°C 51.0°F10.6°C 66% 1.9 mph N3.1 kmh N 7.0 mph11.3 kmh 29.71 in1006.1 mb 0.00 in0.0 mm 0.00 in0.0 mm 0.01 in0.3 mm
04:15 AM 62.1°F16.7°C 51.0°F10.6°C 67% 1.5 mph N2.4 kmh N 6.0 mph9.7 kmh 29.72 in1006.4 mb 0.00 in0.0 mm 0.00 in0.0 mm 0.01 in0.3 mm
04:20 AM 61.9°F16.6°C 51.0°F10.6°C 67% 1.7 mph N2.7 kmh N 6.0 mph9.7 kmh 29.72 in1006.4 mb 0.00 in0.0 mm 0.00 in0.0 mm 0.01 in0.3 mm
04:25 AM 61.6°F16.4°C 49.0°F9.4°C 64% 2.2 mph N3.5 kmh N 8.0 mph12.9 kmh 29.72 in1006.4 mb 0.00 in0.0 mm 0.00 in0.0 mm 0.01 in0.3 mm
04:30 AM 61.5°F16.4°C 49.0°F9.4°C 63% 2.2 mph N3.5 kmh N 5.0 mph8.0 kmh 29.73 in1006.8 mb 0.00 in0.0 mm 0.00 in0.0 mm 0.01 in0.3 mm
04:35 AM 61.3°F16.3°C 49.0°F9.4°C 64% 1.5 mph N2.4 kmh N 4.0 mph6.4 kmh 29.72 in1006.4 mb 0.00 in0.0 mm 0.00 in0.0 mm 0.01 in0.3 mm
04:40 AM 61.0°F16.1°C 48.0°F8.9°C 63% 1.2 mph N1.9 kmh N 3.0 mph4.8 kmh 29.72 in1006.4 mb 0.00 in0.0 mm 0.00 in0.0 mm 0.01 in0.3 mm
04:45 AM 60.7°F15.9°C 48.0°F8.9°C 63% 0.8 mph N1.3 kmh N 3.0 mph4.8 kmh 29.72 in1006.4 mb 0.00 in0.0 mm 0.00 in0.0 mm 0.01 in0.3 mm
04:50 AM 60.5°F15.8°C 48.0°F8.9°C 63% 0.6 mph N1.0 kmh N 4.0 mph6.4 kmh 29.72 in1006.4 mb 0.00 in0.0 mm 0.00 in0.0 mm 0.01 in0.3 mm
04:55 AM 60.2°F15.7°C 47.0°F8.3°C 63% 0.5 mph N0.8 kmh N 4.0 mph6.4 kmh 29.72 in1006.4 mb 0.00 in0.0 mm 0.00 in0.0 mm 0.01 in0.3 mm
05:00 AM 60.0°F15.6°C 47.0°F8.3°C 63% 0.6 mph N1.0 kmh N 3.0 mph4.8 kmh 29.72 in1006.4 mb 0.00 in0.0 mm 0.00 in0.0 mm 0.01 in0.3 mm
05:05 AM 59.8°F15.4°C 47.0°F8.3°C 64% 0.5 mph N0.8 kmh N 3.0 mph4.8 kmh 29.72 in1006.4 mb 0.00 in0.0 mm 0.00 in0.0 mm 0.02 in0.5 mm
05:10 AM 59.5°F15.3°C 48.0°F8.9°C 65% 0.1 mph N0.2 kmh N 3.0 mph4.8 kmh 29.72 in1006.4 mb 0.00 in0.0 mm 0.00 in0.0 mm 0.02 in0.5 mm
05:15 AM 59.2°F15.1°C 47.0°F8.3°C 65% Calm Calm -- 29.73 in1006.8 mb 0.00 in0.0 mm 0.00 in0.0 mm 0.02 in0.5 mm
05:20 AM 59.0°F15.0°C 47.0°F8.3°C 65% 0.4 mph N0.6 kmh N 3.0 mph4.8 kmh 29.73 in1006.8 mb 0.00 in0.0 mm 0.00 in0.0 mm 0.02 in0.5 mm
05:25 AM 58.8°F14.9°C 47.0°F8.3°C 65% 1.0 mph N1.6 kmh N 4.0 mph6.4 kmh 29.73 in1006.8 mb 0.00 in0.0 mm 0.00 in0.0 mm 0.02 in0.5 mm
05:30 AM 58.5°F14.7°C 47.0°F8.3°C 66% 0.6 mph N1.0 kmh N 3.0 mph4.8 kmh 29.73 in1006.8 mb 0.00 in0.0 mm 0.00 in0.0 mm 0.02 in0.5 mm
05:35 AM 58.3°F14.6°C 47.0°F8.3°C 67% Calm Calm -- 29.72 in1006.4 mb 0.00 in0.0 mm 0.00 in0.0 mm 0.02 in0.5 mm
05:40 AM 58.1°F14.5°C 47.0°F8.3°C 67% Calm Calm -- 29.72 in1006.4 mb 0.00 in0.0 mm 0.00 in0.0 mm 0.02 in0.5 mm
05:45 AM 58.0°F14.4°C 47.0°F8.3°C 67% Calm Calm -- 29.72 in1006.4 mb 0.00 in0.0 mm 0.00 in0.0 mm 0.02 in0.5 mm
05:50 AM 57.9°F14.4°C 47.0°F8.3°C 68% Calm Calm -- 29.73 in1006.8 mb 0.00 in0.0 mm 0.00 in0.0 mm 0.02 in0.5 mm
05:55 AM 57.8°F14.3°C 47.0°F8.3°C 68% Calm Calm -- 29.73 in1006.8 mb 0.00 in0.0 mm 0.00 in0.0 mm 0.02 in0.5 mm
06:00 AM 57.8°F14.3°C 47.0°F8.3°C 67% Calm Calm -- 29.73 in1006.8 mb 0.00 in0.0 mm 0.00 in0.0 mm 0.02 in0.5 mm
06:05 AM 57.9°F14.4°C 47.0°F8.3°C 67% Calm Calm -- 29.73 in1006.8 mb 0.00 in0.0 mm 0.00 in0.0 mm 0.02 in0.5 mm
06:10 AM 57.7°F14.3°C 47.0°F8.3°C 67% Calm Calm -- 29.73 in1006.8 mb 0.00 in0.0 mm 0.00 in0.0 mm 0.02 in0.5 mm
06:15 AM 57.5°F14.2°C 47.0°F8.3°C 67% Calm Calm -- 29.73 in1006.8 mb 0.00 in0.0 mm 0.00 in0.0 mm 0.02 in0.5 mm
06:20 AM 57.5°F14.2°C 47.0°F8.3°C 67% 0.2 mph N0.3 kmh N 2.0 mph3.2 kmh 29.73 in1006.8 mb 0.00 in0.0 mm 0.00 in0.0 mm 0.02 in0.5 mm
06:25 AM 57.5°F14.2°C 47.0°F8.3°C 67% 0.2 mph N0.3 kmh N 2.0 mph3.2 kmh 29.73 in1006.8 mb 0.00 in0.0 mm 0.00 in0.0 mm 0.02 in0.5 mm
06:30 AM 57.6°F14.2°C 46.0°F7.8°C 66% Calm Calm 1.0 mph1.6 kmh 29.73 in1006.8 mb 0.00 in0.0 mm 0.00 in0.0 mm 0.02 in0.5 mm
06:35 AM 57.6°F14.2°C 46.0°F7.8°C 66% Calm Calm -- 29.73 in1006.8 mb 0.00 in0.0 mm 0.00 in0.0 mm 0.02 in0.5 mm
06:40 AM 57.7°F14.3°C 46.0°F7.8°C 66% Calm Calm -- 29.73 in1006.8 mb 0.00 in0.0 mm 0.00 in0.0 mm 0.02 in0.5 mm
06:45 AM 57.7°F14.3°C 46.0°F7.8°C 66% Calm Calm -- 29.73 in1006.8 mb 0.00 in0.0 mm 0.00 in0.0 mm 0.02 in0.5 mm
06:50 AM 57.8°F14.3°C 46.0°F7.8°C 65% Calm Calm -- 29.73 in1006.8 mb 0.00 in0.0 mm 0.00 in0.0 mm 0.02 in0.5 mm
06:55 AM 57.8°F14.3°C 46.0°F7.8°C 64% Calm Calm -- 29.74 in1007.1 mb 0.00 in0.0 mm 0.00 in0.0 mm 0.02 in0.5 mm
07:00 AM 58.1°F14.5°C 46.0°F7.8°C 64% 0.5 mph N0.8 kmh N 3.0 mph4.8 kmh 29.74 in1007.1 mb 0.00 in0.0 mm 0.00 in0.0 mm 0.02 in0.5 mm
07:05 AM 58.2°F14.6°C 45.0°F7.2°C 63% 1.1 mph N1.8 kmh N 3.0 mph4.8 kmh 29.74 in1007.1 mb 0.00 in0.0 mm 0.00 in0.0 mm 0.02 in0.5 mm
07:10 AM 58.1°F14.5°C 45.0°F7.2°C 63% 1.6 mph N2.6 kmh N 4.0 mph6.4 kmh 29.75 in1007.5 mb 0.00 in0.0 mm 0.00 in0.0 mm 0.02 in0.5 mm
07:15 AM 58.1°F14.5°C 45.0°F7.2°C 63% 1.2 mph N1.9 kmh N 3.0 mph4.8 kmh 29.75 in1007.5 mb 0.00 in0.0 mm 0.00 in0.0 mm 0.02 in0.5 mm
07:20 AM 58.1°F14.5°C 45.0°F7.2°C 63% 1.0 mph N1.6 kmh N 3.0 mph4.8 kmh 29.75 in1007.5 mb 0.00 in0.0 mm 0.00 in0.0 mm 0.02 in0.5 mm
07:25 AM 58.2°F14.6°C 45.0°F7.2°C 63% 1.3 mph N2.1 kmh N 5.0 mph8.0 kmh 29.75 in1007.5 mb 0.00 in0.0 mm 0.00 in0.0 mm 0.02 in0.5 mm
07:30 AM 58.4°F14.7°C 46.0°F7.8°C 63% 1.1 mph N1.8 kmh N 5.0 mph8.0 kmh 29.75 in1007.5 mb 0.00 in0.0 mm 0.00 in0.0 mm 0.02 in0.5 mm
07:35 AM 58.7°F14.8°C 46.0°F7.8°C 62% 1.5 mph N2.4 kmh N 6.0 mph9.7 kmh 29.75 in1007.5 mb 0.00 in0.0 mm 0.00 in0.0 mm 0.02 in0.5 mm
07:40 AM 59.0°F15.0°C 46.0°F7.8°C 62% 2.2 mph N3.5 kmh N 6.0 mph9.7 kmh 29.76 in1007.8 mb 0.00 in0.0 mm 0.00 in0.0 mm 0.02 in0.5 mm
07:45 AM 59.1°F15.1°C 46.0°F7.8°C 62% 2.0 mph N3.2 kmh N 6.0 mph9.7 kmh 29.76 in1007.8 mb 0.00 in0.0 mm 0.00 in0.0 mm 0.02 in0.5 mm
07:50 AM 59.3°F15.2°C 46.0°F7.8°C 62% 1.8 mph N2.9 kmh N 6.0 mph9.7 kmh 29.75 in1007.5 mb 0.00 in0.0 mm 0.00 in0.0 mm 0.02 in0.5 mm
07:55 AM 59.5°F15.3°C 46.0°F7.8°C 62% 2.2 mph N3.5 kmh N 6.0 mph9.7 kmh 29.76 in1007.8 mb 0.00 in0.0 mm 0.00 in0.0 mm 0.02 in0.5 mm
08:00 AM 59.6°F15.3°C 46.0°F7.8°C 61% 2.5 mph SW4.0 kmh SW 6.0 mph9.7 kmh 29.76 in1007.8 mb 0.00 in0.0 mm 0.00 in0.0 mm 0.02 in0.5 mm
08:05 AM 59.6°F15.3°C 46.0°F7.8°C 62% 2.3 mph SW3.7 kmh SW 6.0 mph9.7 kmh 29.75 in1007.5 mb 0.00 in0.0 mm 0.00 in0.0 mm 0.02 in0.5 mm
08:10 AM 59.8°F15.4°C 47.0°F8.3°C 62% 2.0 mph N3.2 kmh N 4.0 mph6.4 kmh 29.76 in1007.8 mb 0.00 in0.0 mm 0.00 in0.0 mm 0.02 in0.5 mm
08:15 AM 60.0°F15.6°C 46.0°F7.8°C 61% 2.0 mph W3.2 kmh W 5.0 mph8.0 kmh 29.76 in1007.8 mb 0.00 in0.0 mm 0.00 in0.0 mm 0.02 in0.5 mm
08:20 AM 60.2°F15.7°C 47.0°F8.3°C 61% 2.6 mph SW4.2 kmh SW 7.0 mph11.3 kmh 29.76 in1007.8 mb 0.00 in0.0 mm 0.00 in0.0 mm 0.02 in0.5 mm
08:25 AM 60.2°F15.7°C 47.0°F8.3°C 61% 3.1 mph SW5.0 kmh SW 7.0 mph11.3 kmh 29.77 in1008.1 mb 0.00 in0.0 mm 0.00 in0.0 mm 0.02 in0.5 mm
08:30 AM 60.3°F15.7°C 47.0°F8.3°C 61% 2.8 mph WSW4.5 kmh WSW 7.0 mph11.3 kmh 29.76 in1007.8 mb 0.00 in0.0 mm 0.00 in0.0 mm 0.02 in0.5 mm
08:35 AM 60.3°F15.7°C 47.0°F8.3°C 62% 2.1 mph WSW3.4 kmh WSW 7.0 mph11.3 kmh 29.77 in1008.1 mb 0.00 in0.0 mm 0.00 in0.0 mm 0.02 in0.5 mm
08:40 AM 60.4°F15.8°C 47.0°F8.3°C 62% 2.1 mph SW3.4 kmh SW 5.0 mph8.0 kmh 29.77 in1008.1 mb 0.00 in0.0 mm 0.00 in0.0 mm 0.02 in0.5 mm
08:45 AM 60.5°F15.8°C 47.0°F8.3°C 62% 2.4 mph WNW3.9 kmh WNW 5.0 mph8.0 kmh 29.77 in1008.1 mb 0.00 in0.0 mm 0.00 in0.0 mm 0.02 in0.5 mm
08:50 AM 60.7°F15.9°C 47.0°F8.3°C 61% 2.3 mph WSW3.7 kmh WSW 9.0 mph14.5 kmh 29.77 in1008.1 mb 0.00 in0.0 mm 0.00 in0.0 mm 0.02 in0.5 mm
08:55 AM 61.0°F16.1°C 47.0°F8.3°C 61% 2.5 mph S4.0 kmh S 9.0 mph14.5 kmh 29.77 in1008.1 mb 0.00 in0.0 mm 0.00 in0.0 mm 0.02 in0.5 mm
09:00 AM 61.0°F16.1°C 47.0°F8.3°C 61% 3.0 mph SW4.8 kmh SW 8.0 mph12.9 kmh 29.78 in1008.5 mb 0.00 in0.0 mm 0.00 in0.0 mm 0.02 in0.5 mm
09:05 AM 61.0°F16.1°C 47.0°F8.3°C 60% 3.1 mph WNW5.0 kmh WNW 8.0 mph12.9 kmh 29.78 in1008.5 mb 0.00 in0.0 mm 0.00 in0.0 mm 0.02 in0.5 mm
09:10 AM 61.1°F16.2°C 47.0°F8.3°C 60% 3.3 mph SW5.3 kmh SW 11.0 mph17.7 kmh 29.78 in1008.5 mb 0.00 in0.0 mm 0.00 in0.0 mm 0.02 in0.5 mm
09:15 AM 61.9°F16.6°C 47.0°F8.3°C 59% 3.8 mph W6.1 kmh W 11.0 mph17.7 kmh 29.79 in1008.8 mb 0.00 in0.0 mm 0.00 in0.0 mm 0.02 in0.5 mm
09:20 AM 62.7°F17.1°C 48.0°F8.9°C 59% 3.5 mph WNW5.6 kmh WNW 8.0 mph12.9 kmh 29.78 in1008.5 mb 0.00 in0.0 mm 0.00 in0.0 mm 0.02 in0.5 mm
09:25 AM 63.3°F17.4°C 48.0°F8.9°C 58% 3.6 mph WNW5.8 kmh WNW 9.0 mph14.5 kmh 29.78 in1008.5 mb 0.00 in0.0 mm 0.00 in0.0 mm 0.02 in0.5 mm
09:30 AM 63.7°F17.6°C 48.0°F8.9°C 57% 3.7 mph WNW6.0 kmh WNW 9.0 mph14.5 kmh 29.78 in1008.5 mb 0.00 in0.0 mm 0.00 in0.0 mm 0.02 in0.5 mm
09:35 AM 63.7°F17.6°C 48.0°F8.9°C 57% 4.1 mph NW6.6 kmh NW 10.0 mph16.1 kmh 29.78 in1008.5 mb 0.00 in0.0 mm 0.00 in0.0 mm 0.02 in0.5 mm
09:40 AM 64.0°F17.8°C 48.0°F8.9°C 56% 4.7 mph S7.6 kmh S 11.0 mph17.7 kmh 29.78 in1008.5 mb 0.00 in0.0 mm 0.00 in0.0 mm 0.02 in0.5 mm
09:45 AM 64.1°F17.8°C 48.0°F8.9°C 56% 5.2 mph WNW8.4 kmh WNW 17.0 mph27.4 kmh 29.79 in1008.8 mb 0.00 in0.0 mm 0.00 in0.0 mm 0.02 in0.5 mm
09:50 AM 64.1°F17.8°C 47.0°F8.3°C 55% 5.8 mph W9.3 kmh W 17.0 mph27.4 kmh 29.78 in1008.5 mb 0.00 in0.0 mm 0.00 in0.0 mm 0.02 in0.5 mm
09:55 AM 64.6°F18.1°C 48.0°F8.9°C 55% 4.8 mph WSW7.7 kmh WSW 11.0 mph17.7 kmh 29.79 in1008.8 mb 0.00 in0.0 mm 0.00 in0.0 mm 0.02 in0.5 mm
10:00 AM 65.3°F18.5°C 48.0°F8.9°C 54% 3.6 mph W5.8 kmh W 11.0 mph17.7 kmh 29.79 in1008.8 mb 0.00 in0.0 mm 0.00 in0.0 mm 0.02 in0.5 mm
10:05 AM 65.2°F18.4°C 48.0°F8.9°C 54% 4.4 mph NW7.1 kmh NW 13.0 mph20.9 kmh 29.78 in1008.5 mb 0.00 in0.0 mm 0.00 in0.0 mm 0.02 in0.5 mm
10:10 AM 65.6°F18.7°C 48.0°F8.9°C 54% 4.9 mph SW7.9 kmh SW 13.0 mph20.9 kmh 29.79 in1008.8 mb 0.00 in0.0 mm 0.00 in0.0 mm 0.02 in0.5 mm
10:15 AM 66.0°F18.9°C 48.0°F8.9°C 53% 4.6 mph SW7.4 kmh SW 13.0 mph20.9 kmh 29.79 in1008.8 mb 0.00 in0.0 mm 0.00 in0.0 mm 0.02 in0.5 mm
10:20 AM 66.5°F19.2°C 48.0°F8.9°C 52% 4.7 mph NW7.6 kmh NW 13.0 mph20.9 kmh 29.79 in1008.8 mb 0.00 in0.0 mm 0.00 in0.0 mm 0.02 in0.5 mm
10:25 AM 66.8°F19.3°C 47.0°F8.3°C 50% 4.2 mph WSW6.8 kmh WSW 9.0 mph14.5 kmh 29.79 in1008.8 mb 0.00 in0.0 mm 0.00 in0.0 mm 0.02 in0.5 mm
10:30 AM 66.6°F19.2°C 47.0°F8.3°C 49% 4.3 mph WSW6.9 kmh WSW 12.0 mph19.3 kmh 29.79 in1008.8 mb 0.00 in0.0 mm 0.00 in0.0 mm 0.02 in0.5 mm
10:35 AM 66.7°F19.3°C 46.0°F7.8°C 48% 4.6 mph W7.4 kmh W 12.0 mph19.3 kmh 29.80 in1009.1 mb 0.00 in0.0 mm 0.00 in0.0 mm 0.02 in0.5 mm
10:40 AM 66.9°F19.4°C 46.0°F7.8°C 47% 4.8 mph NW7.7 kmh NW 13.0 mph20.9 kmh 29.80 in1009.1 mb 0.00 in0.0 mm 0.00 in0.0 mm 0.02 in0.5 mm
10:45 AM 66.7°F19.3°C 46.0°F7.8°C 47% 5.2 mph SW8.4 kmh SW 13.0 mph20.9 kmh 29.80 in1009.1 mb 0.00 in0.0 mm 0.00 in0.0 mm 0.02 in0.5 mm
10:50 AM 66.8°F19.3°C 45.0°F7.2°C 46% 5.3 mph WNW8.5 kmh WNW 12.0 mph19.3 kmh 29.80 in1009.1 mb 0.00 in0.0 mm 0.00 in0.0 mm 0.02 in0.5 mm
10:55 AM 67.3°F19.6°C 45.0°F7.2°C 44% 5.3 mph S8.5 kmh S 14.0 mph22.5 kmh 29.80 in1009.1 mb 0.00 in0.0 mm 0.00 in0.0 mm 0.02 in0.5 mm
11:00 AM 67.1°F19.5°C 43.0°F6.1°C 42% 5.4 mph NW8.7 kmh NW 14.0 mph22.5 kmh 29.80 in1009.1 mb 0.00 in0.0 mm 0.00 in0.0 mm 0.02 in0.5 mm
11:05 AM 66.9°F19.4°C 44.0°F6.7°C 43% 4.7 mph WSW7.6 kmh WSW 12.0 mph19.3 kmh 29.80 in1009.1 mb 0.00 in0.0 mm 0.00 in0.0 mm 0.02 in0.5 mm
11:10 AM 66.4°F19.1°C 43.0°F6.1°C 43% 5.0 mph WSW8.0 kmh WSW 15.0 mph24.1 kmh 29.80 in1009.1 mb 0.00 in0.0 mm 0.00 in0.0 mm 0.02 in0.5 mm
11:15 AM 66.2°F19.0°C 43.0°F6.1°C 43% 5.6 mph N9.0 kmh N 15.0 mph24.1 kmh 29.81 in1009.5 mb 0.00 in0.0 mm 0.00 in0.0 mm 0.02 in0.5 mm
11:20 AM 66.1°F18.9°C 43.0°F6.1°C 43% 5.2 mph NNW8.4 kmh NNW 11.0 mph17.7 kmh 29.81 in1009.5 mb 0.00 in0.0 mm 0.00 in0.0 mm 0.02 in0.5 mm
11:25 AM 67.0°F19.4°C 42.0°F5.6°C 41% 5.2 mph WSW8.4 kmh WSW 12.0 mph19.3 kmh 29.81 in1009.5 mb 0.00 in0.0 mm 0.00 in0.0 mm 0.02 in0.5 mm
11:30 AM 67.6°F19.8°C 43.0°F6.1°C 41% 5.3 mph SW8.5 kmh SW 12.0 mph19.3 kmh 29.81 in1009.5 mb 0.00 in0.0 mm 0.00 in0.0 mm 0.02 in0.5 mm
11:35 AM 66.8°F19.3°C 42.0°F5.6°C 40% 6.1 mph SSW9.8 kmh SSW 18.0 mph29.0 kmh 29.82 in1009.8 mb 0.00 in0.0 mm 0.00 in0.0 mm 0.02 in0.5 mm
11:40 AM 67.2°F19.6°C 43.0°F6.1°C 41% 5.9 mph NNW9.5 kmh NNW 18.0 mph29.0 kmh 29.82 in1009.8 mb 0.00 in0.0 mm 0.00 in0.0 mm 0.02 in0.5 mm
11:45 AM 67.0°F19.4°C 42.0°F5.6°C 41% 5.1 mph NW8.2 kmh NW 14.0 mph22.5 kmh 29.82 in1009.8 mb 0.00 in0.0 mm 0.00 in0.0 mm 0.02 in0.5 mm
11:50 AM 67.5°F19.7°C 43.0°F6.1°C 42% 5.7 mph WSW9.2 kmh WSW 15.0 mph24.1 kmh 29.82 in1009.8 mb 0.00 in0.0 mm 0.00 in0.0 mm 0.02 in0.5 mm
11:55 AM 68.0°F20.0°C 43.0°F6.1°C 40% 5.5 mph N8.9 kmh N 15.0 mph24.1 kmh 29.82 in1009.8 mb 0.00 in0.0 mm 0.00 in0.0 mm 0.02 in0.5 mm
12:00 PM 68.3°F20.2°C 40.0°F4.4°C 36% 5.3 mph W8.5 kmh W 12.0 mph19.3 kmh 29.82 in1009.8 mb 0.00 in0.0 mm 0.00 in0.0 mm 0.02 in0.5 mm
12:05 PM 68.0°F20.0°C 39.0°F3.9°C 35% 6.1 mph W9.8 kmh W 15.0 mph24.1 kmh 29.82 in1009.8 mb 0.00 in0.0 mm 0.00 in0.0 mm 0.02 in0.5 mm
12:10 PM 67.8°F19.9°C 40.0°F4.4°C 37% 6.9 mph N11.1 kmh N 15.0 mph24.1 kmh 29.82 in1009.8 mb 0.00 in0.0 mm 0.00 in0.0 mm 0.02 in0.5 mm
12:15 PM 68.2°F20.1°C 42.0°F5.6°C 39% 6.3 mph W10.1 kmh W 14.0 mph22.5 kmh 29.82 in1009.8 mb 0.00 in0.0 mm 0.00 in0.0 mm 0.02 in0.5 mm
12:20 PM 67.9°F19.9°C 43.0°F6.1°C 40% 5.8 mph WNW9.3 kmh WNW 14.0 mph22.5 kmh 29.83 in1010.2 mb 0.00 in0.0 mm 0.00 in0.0 mm 0.02 in0.5 mm
12:25 PM 67.6°F19.8°C 42.0°F5.6°C 39% 6.7 mph WSW10.8 kmh WSW 15.0 mph24.1 kmh 29.83 in1010.2 mb 0.00 in0.0 mm 0.00 in0.0 mm 0.02 in0.5 mm
12:30 PM 67.2°F19.6°C 41.0°F5.0°C 39% 7.2 mph SW11.6 kmh SW 17.0 mph27.4 kmh 29.83 in1010.2 mb 0.00 in0.0 mm 0.00 in0.0 mm 0.02 in0.5 mm
12:35 PM 67.2°F19.6°C 41.0°F5.0°C 39% 6.8 mph SW10.9 kmh SW 17.0 mph27.4 kmh 29.83 in1010.2 mb 0.00 in0.0 mm 0.00 in0.0 mm 0.02 in0.5 mm
12:40 PM 67.1°F19.5°C 40.0°F4.4°C 37% 6.8 mph WSW10.9 kmh WSW 17.0 mph27.4 kmh 29.83 in1010.2 mb 0.00 in0.0 mm 0.00 in0.0 mm 0.02 in0.5 mm
12:45 PM 66.7°F19.3°C 40.0°F4.4°C 38% 7.2 mph W11.6 kmh W 17.0 mph27.4 kmh 29.83 in1010.2 mb 0.00 in0.0 mm 0.00 in0.0 mm 0.02 in0.5 mm
12:50 PM 66.9°F19.4°C 40.0°F4.4°C 37% 6.3 mph N10.1 kmh N 14.0 mph22.5 kmh 29.83 in1010.2 mb 0.00 in0.0 mm 0.00 in0.0 mm 0.02 in0.5 mm
12:55 PM 67.0°F19.4°C 38.0°F3.3°C 35% 6.0 mph N9.7 kmh N 16.0 mph25.7 kmh 29.83 in1010.2 mb 0.00 in0.0 mm 0.00 in0.0 mm 0.02 in0.5 mm
01:00 PM 67.1°F19.5°C 38.0°F3.3°C 35% 6.6 mph W10.6 kmh W 16.0 mph25.7 kmh 29.83 in1010.2 mb 0.00 in0.0 mm 0.00 in0.0 mm 0.02 in0.5 mm
01:05 PM 67.1°F19.5°C 38.0°F3.3°C 35% 6.3 mph SSW10.1 kmh SSW 16.0 mph25.7 kmh 29.83 in1010.2 mb 0.00 in0.0 mm 0.00 in0.0 mm 0.02 in0.5 mm
01:10 PM 66.7°F19.3°C 37.0°F2.8°C 34% 6.3 mph WSW10.1 kmh WSW 14.0 mph22.5 kmh 29.84 in1010.5 mb 0.00 in0.0 mm 0.00 in0.0 mm 0.02 in0.5 mm
01:15 PM 65.8°F18.8°C 39.0°F3.9°C 37% 5.3 mph W8.5 kmh W 14.0 mph22.5 kmh 29.84 in1010.5 mb 0.00 in0.0 mm 0.00 in0.0 mm 0.02 in0.5 mm
01:20 PM 66.9°F19.4°C 39.0°F3.9°C 36% 4.7 mph NW7.6 kmh NW 11.0 mph17.7 kmh 29.84 in1010.5 mb 0.00 in0.0 mm 0.00 in0.0 mm 0.02 in0.5 mm
01:25 PM 67.2°F19.6°C 39.0°F3.9°C 36% 5.7 mph NNW9.2 kmh NNW 12.0 mph19.3 kmh 29.84 in1010.5 mb 0.00 in0.0 mm 0.00 in0.0 mm 0.02 in0.5 mm
01:30 PM 67.1°F19.5°C 38.0°F3.3°C 34% 6.4 mph NW10.3 kmh NW 15.0 mph24.1 kmh 29.84 in1010.5 mb 0.00 in0.0 mm 0.00 in0.0 mm 0.02 in0.5 mm
01:35 PM 67.3°F19.6°C 39.0°F3.9°C 36% 6.6 mph SW10.6 kmh SW 15.0 mph24.1 kmh 29.84 in1010.5 mb 0.00 in0.0 mm 0.00 in0.0 mm 0.02 in0.5 mm
01:40 PM 67.5°F19.7°C 41.0°F5.0°C 38% 5.8 mph NW9.3 kmh NW 12.0 mph19.3 kmh 29.84 in1010.5 mb 0.00 in0.0 mm 0.00 in0.0 mm 0.02 in0.5 mm
01:45 PM 66.2°F19.0°C 40.0°F4.4°C 39% 5.1 mph N8.2 kmh N 11.0 mph17.7 kmh 29.84 in1010.5 mb 0.00 in0.0 mm 0.00 in0.0 mm 0.02 in0.5 mm
01:50 PM 65.2°F18.4°C 40.0°F4.4°C 40% 4.1 mph SSW6.6 kmh SSW 11.0 mph17.7 kmh 29.84 in1010.5 mb 0.00 in0.0 mm 0.00 in0.0 mm 0.02 in0.5 mm
01:55 PM 65.3°F18.5°C 40.0°F4.4°C 40% 3.9 mph WNW6.3 kmh WNW 11.0 mph17.7 kmh 29.84 in1010.5 mb 0.00 in0.0 mm 0.00 in0.0 mm 0.02 in0.5 mm
02:00 PM 64.6°F18.1°C 40.0°F4.4°C 40% 4.5 mph N7.2 kmh N 11.0 mph17.7 kmh 29.84 in1010.5 mb 0.00 in0.0 mm 0.00 in0.0 mm 0.02 in0.5 mm
02:05 PM 66.2°F19.0°C 40.0°F4.4°C 39% 4.0 mph W6.4 kmh W 11.0 mph17.7 kmh 29.84 in1010.5 mb 0.00 in0.0 mm 0.00 in0.0 mm 0.02 in0.5 mm
02:15 PM 67.0°F19.4°C 40.0°F4.4°C 37% 4.5 mph SW7.2 kmh SW 14.0 mph22.5 kmh 29.84 in1010.5 mb 0.00 in0.0 mm 0.00 in0.0 mm 0.02 in0.5 mm
02:20 PM 65.8°F18.8°C 39.0°F3.9°C 38% 4.0 mph SSW6.4 kmh SSW 9.0 mph14.5 kmh 29.85 in1010.8 mb 0.00 in0.0 mm 0.00 in0.0 mm 0.02 in0.5 mm
02:25 PM 66.0°F18.9°C 40.0°F4.4°C 38% 4.2 mph SSW6.8 kmh SSW 11.0 mph17.7 kmh 29.85 in1010.8 mb 0.00 in0.0 mm 0.00 in0.0 mm 0.02 in0.5 mm
02:30 PM 66.1°F18.9°C 40.0°F4.4°C 38% 4.5 mph WSW7.2 kmh WSW 11.0 mph17.7 kmh 29.85 in1010.8 mb 0.00 in0.0 mm 0.00 in0.0 mm 0.02 in0.5 mm
02:35 PM 65.6°F18.7°C 40.0°F4.4°C 39% 4.2 mph SW6.8 kmh SW 9.0 mph14.5 kmh 29.85 in1010.8 mb 0.00 in0.0 mm 0.00 in0.0 mm 0.02 in0.5 mm
02:40 PM 66.9°F19.4°C 40.0°F4.4°C 38% 3.9 mph N6.3 kmh N 9.0 mph14.5 kmh 29.85 in1010.8 mb 0.00 in0.0 mm 0.00 in0.0 mm 0.02 in0.5 mm
02:45 PM 67.2°F19.6°C 39.0°F3.9°C 36% 4.3 mph N6.9 kmh N 12.0 mph19.3 kmh 29.85 in1010.8 mb 0.00 in0.0 mm 0.00 in0.0 mm 0.02 in0.5 mm
02:50 PM 67.3°F19.6°C 39.0°F3.9°C 36% 4.6 mph SW7.4 kmh SW 12.0 mph19.3 kmh 29.85 in1010.8 mb 0.00 in0.0 mm 0.00 in0.0 mm 0.02 in0.5 mm
02:55 PM 66.6°F19.2°C 41.0°F5.0°C 39% 4.3 mph WSW6.9 kmh WSW 12.0 mph19.3 kmh 29.86 in1011.2 mb 0.00 in0.0 mm 0.00 in0.0 mm 0.02 in0.5 mm
03:00 PM 66.0°F18.9°C 40.0°F4.4°C 38% 4.2 mph SW6.8 kmh SW 13.0 mph20.9 kmh 29.86 in1011.2 mb 0.00 in0.0 mm 0.00 in0.0 mm 0.02 in0.5 mm
03:05 PM 66.0°F18.9°C 39.0°F3.9°C 37% 4.3 mph SSW6.9 kmh SSW 13.0 mph20.9 kmh 29.86 in1011.2 mb 0.00 in0.0 mm 0.00 in0.0 mm 0.02 in0.5 mm
03:10 PM 65.8°F18.8°C 39.0°F3.9°C 37% 3.9 mph WSW6.3 kmh WSW 10.0 mph16.1 kmh 29.86 in1011.2 mb 0.00 in0.0 mm 0.00 in0.0 mm 0.02 in0.5 mm
03:15 PM 64.7°F18.2°C 38.0°F3.3°C 38% 3.2 mph N5.1 kmh N 8.0 mph12.9 kmh 29.86 in1011.2 mb 0.00 in0.0 mm 0.00 in0.0 mm 0.02 in0.5 mm
03:20 PM 64.7°F18.2°C 38.0°F3.3°C 38% 3.1 mph N5.0 kmh N 9.0 mph14.5 kmh 29.86 in1011.2 mb 0.00 in0.0 mm 0.00 in0.0 mm 0.02 in0.5 mm
03:25 PM 65.1°F18.4°C 39.0°F3.9°C 38% 3.5 mph N5.6 kmh N 9.0 mph14.5 kmh 29.86 in1011.2 mb 0.00 in0.0 mm 0.00 in0.0 mm 0.02 in0.5 mm
03:30 PM 64.8°F18.2°C 39.0°F3.9°C 39% 3.4 mph NW5.5 kmh NW 7.0 mph11.3 kmh 29.86 in1011.2 mb 0.00 in0.0 mm 0.00 in0.0 mm 0.02 in0.5 mm
03:35 PM 66.2°F19.0°C 39.0°F3.9°C 37% 3.5 mph NW5.6 kmh NW 10.0 mph16.1 kmh 29.86 in1011.2 mb 0.00 in0.0 mm 0.00 in0.0 mm 0.02 in0.5 mm
03:40 PM 65.9°F18.8°C 39.0°F3.9°C 37% 4.0 mph NNW6.4 kmh NNW 10.0 mph16.1 kmh 29.86 in1011.2 mb 0.00 in0.0 mm 0.00 in0.0 mm 0.02 in0.5 mm
03:45 PM 65.0°F18.3°C 40.0°F4.4°C 40% 3.7 mph W6.0 kmh W 9.0 mph14.5 kmh 29.87 in1011.5 mb 0.00 in0.0 mm 0.00 in0.0 mm 0.02 in0.5 mm
03:50 PM 65.7°F18.7°C 39.0°F3.9°C 38% 3.4 mph NW5.5 kmh NW 9.0 mph14.5 kmh 29.87 in1011.5 mb 0.00 in0.0 mm 0.00 in0.0 mm 0.02 in0.5 mm
03:55 PM 65.2°F18.4°C 39.0°F3.9°C 39% 3.4 mph WNW5.5 kmh WNW 7.0 mph11.3 kmh 29.87 in1011.5 mb 0.00 in0.0 mm 0.00 in0.0 mm 0.02 in0.5 mm
04:00 PM 65.6°F18.7°C 40.0°F4.4°C 39% 2.6 mph W4.2 kmh W 7.0 mph11.3 kmh 29.88 in1011.9 mb 0.00 in0.0 mm 0.00 in0.0 mm 0.02 in0.5 mm
04:05 PM 65.6°F18.7°C 39.0°F3.9°C 38% 2.6 mph SW4.2 kmh SW 9.0 mph14.5 kmh 29.88 in1011.9 mb 0.00 in0.0 mm 0.00 in0.0 mm 0.02 in0.5 mm
04:10 PM 65.2°F18.4°C 39.0°F3.9°C 39% 2.8 mph NNW4.5 kmh NNW 9.0 mph14.5 kmh 29.88 in1011.9 mb 0.00 in0.0 mm 0.00 in0.0 mm 0.02 in0.5 mm
04:15 PM 65.6°F18.7°C 38.0°F3.3°C 37% 3.0 mph WSW4.8 kmh WSW 10.0 mph16.1 kmh 29.89 in1012.2 mb 0.00 in0.0 mm 0.00 in0.0 mm 0.02 in0.5 mm
04:20 PM 65.8°F18.8°C 39.0°F3.9°C 37% 3.0 mph NW4.8 kmh NW 10.0 mph16.1 kmh 29.89 in1012.2 mb 0.00 in0.0 mm 0.00 in0.0 mm 0.02 in0.5 mm
04:25 PM 65.7°F18.7°C 38.0°F3.3°C 36% 2.8 mph WNW4.5 kmh WNW 11.0 mph17.7 kmh 29.89 in1012.2 mb 0.00 in0.0 mm 0.00 in0.0 mm 0.02 in0.5 mm
04:30 PM 65.6°F18.7°C 38.0°F3.3°C 37% 3.3 mph WNW5.3 kmh WNW 11.0 mph17.7 kmh 29.89 in1012.2 mb 0.00 in0.0 mm 0.00 in0.0 mm 0.02 in0.5 mm
04:35 PM 65.9°F18.8°C 39.0°F3.9°C 37% 3.0 mph WSW4.8 kmh WSW 9.0 mph14.5 kmh 29.89 in1012.2 mb 0.00 in0.0 mm 0.00 in0.0 mm 0.02 in0.5 mm
04:40 PM 65.2°F18.4°C 37.0°F2.8°C 36% 3.3 mph N5.3 kmh N 9.0 mph14.5 kmh 29.89 in1012.2 mb 0.00 in0.0 mm 0.00 in0.0 mm 0.02 in0.5 mm
04:45 PM 64.4°F18.0°C 38.0°F3.3°C 38% 3.7 mph WNW6.0 kmh WNW 9.0 mph14.5 kmh 29.90 in1012.5 mb 0.00 in0.0 mm 0.00 in0.0 mm 0.02 in0.5 mm
04:50 PM 64.3°F17.9°C 38.0°F3.3°C 38% 2.9 mph NNW4.7 kmh NNW 8.0 mph12.9 kmh 29.90 in1012.5 mb 0.00 in0.0 mm 0.00 in0.0 mm 0.02 in0.5 mm
04:55 PM 64.2°F17.9°C 39.0°F3.9°C 40% 2.8 mph WNW4.5 kmh WNW 8.0 mph12.9 kmh 29.90 in1012.5 mb 0.00 in0.0 mm 0.00 in0.0 mm 0.02 in0.5 mm
05:00 PM 63.8°F17.7°C 40.0°F4.4°C 42% 2.6 mph WSW4.2 kmh WSW 7.0 mph11.3 kmh 29.90 in1012.5 mb 0.00 in0.0 mm 0.00 in0.0 mm 0.02 in0.5 mm
05:05 PM 63.8°F17.7°C 40.0°F4.4°C 42% 2.2 mph NW3.5 kmh NW 6.0 mph9.7 kmh 29.90 in1012.5 mb 0.00 in0.0 mm 0.00 in0.0 mm 0.02 in0.5 mm
05:10 PM 63.7°F17.6°C 40.0°F4.4°C 42% 1.9 mph NW3.1 kmh NW 6.0 mph9.7 kmh 29.91 in1012.9 mb 0.00 in0.0 mm 0.00 in0.0 mm 0.02 in0.5 mm
05:15 PM 63.7°F17.6°C 40.0°F4.4°C 42% 1.2 mph WSW1.9 kmh WSW 4.0 mph6.4 kmh 29.91 in1012.9 mb 0.00 in0.0 mm 0.00 in0.0 mm 0.02 in0.5 mm
05:20 PM 63.6°F17.6°C 40.0°F4.4°C 42% 1.4 mph N2.3 kmh N 6.0 mph9.7 kmh 29.91 in1012.9 mb 0.00 in0.0 mm 0.00 in0.0 mm 0.02 in0.5 mm
05:25 PM 63.1°F17.3°C 40.0°F4.4°C 43% 1.6 mph N2.6 kmh N 6.0 mph9.7 kmh 29.91 in1012.9 mb 0.00 in0.0 mm 0.00 in0.0 mm 0.02 in0.5 mm
05:30 PM 62.7°F17.1°C 40.0°F4.4°C 44% 1.3 mph N2.1 kmh N 4.0 mph6.4 kmh 29.91 in1012.9 mb 0.00 in0.0 mm 0.00 in0.0 mm 0.02 in0.5 mm
05:35 PM 62.4°F16.9°C 40.0°F4.4°C 44% 1.1 mph N1.8 kmh N 5.0 mph8.0 kmh 29.91 in1012.9 mb 0.00 in0.0 mm 0.00 in0.0 mm 0.02 in0.5 mm
05:40 PM 62.1°F16.7°C 40.0°F4.4°C 45% 1.3 mph N2.1 kmh N 5.0 mph8.0 kmh 29.91 in1012.9 mb 0.00 in0.0 mm 0.00 in0.0 mm 0.02 in0.5 mm
05:45 PM 61.8°F16.6°C 40.0°F4.4°C 45% 1.5 mph N2.4 kmh N 5.0 mph8.0 kmh 29.91 in1012.9 mb 0.00 in0.0 mm 0.00 in0.0 mm 0.02 in0.5 mm
05:50 PM 61.6°F16.4°C 40.0°F4.4°C 46% 0.9 mph N1.4 kmh N 3.0 mph4.8 kmh 29.91 in1012.9 mb 0.00 in0.0 mm 0.00 in0.0 mm 0.02 in0.5 mm
05:55 PM 61.4°F16.3°C 40.0°F4.4°C 46% 0.3 mph N0.5 kmh N 2.0 mph3.2 kmh 29.91 in1012.9 mb 0.00 in0.0 mm 0.00 in0.0 mm 0.02 in0.5 mm
06:00 PM 61.2°F16.2°C 41.0°F5.0°C 47% 0.2 mph N0.3 kmh N 2.0 mph3.2 kmh 29.91 in1012.9 mb 0.00 in0.0 mm 0.00 in0.0 mm 0.02 in0.5 mm
06:05 PM 60.7°F15.9°C 41.0°F5.0°C 48% 0.1 mph N0.2 kmh N 1.0 mph1.6 kmh 29.91 in1012.9 mb 0.00 in0.0 mm 0.00 in0.0 mm 0.02 in0.5 mm
06:10 PM 59.4°F15.2°C 42.0°F5.6°C 52% Calm Calm -- 29.91 in1012.9 mb 0.00 in0.0 mm 0.00 in0.0 mm 0.02 in0.5 mm
06:15 PM 57.9°F14.4°C 41.0°F5.0°C 54% Calm Calm -- 29.91 in1012.9 mb 0.00 in0.0 mm 0.00 in0.0 mm 0.02 in0.5 mm
06:20 PM 56.9°F13.8°C 41.0°F5.0°C 56% Calm Calm -- 29.91 in1012.9 mb 0.00 in0.0 mm 0.00 in0.0 mm 0.02 in0.5 mm
06:25 PM 56.1°F13.4°C 41.0°F5.0°C 58% Calm Calm -- 29.91 in1012.9 mb 0.00 in0.0 mm 0.00 in0.0 mm 0.02 in0.5 mm
06:30 PM 55.4°F13.0°C 42.0°F5.6°C 60% Calm Calm -- 29.91 in1012.9 mb 0.00 in0.0 mm 0.00 in0.0 mm 0.02 in0.5 mm
06:35 PM 54.5°F12.5°C 41.0°F5.0°C 61% Calm Calm -- 29.91 in1012.9 mb 0.00 in0.0 mm 0.00 in0.0 mm 0.02 in0.5 mm
06:40 PM 54.0°F12.2°C 42.0°F5.6°C 63% Calm Calm -- 29.91 in1012.9 mb 0.00 in0.0 mm 0.00 in0.0 mm 0.02 in0.5 mm
06:45 PM 53.4°F11.9°C 41.0°F5.0°C 64% Calm Calm -- 29.91 in1012.9 mb 0.00 in0.0 mm 0.00 in0.0 mm 0.02 in0.5 mm
06:50 PM 53.0°F11.7°C 41.0°F5.0°C 65% Calm Calm -- 29.91 in1012.9 mb 0.00 in0.0 mm 0.00 in0.0 mm 0.02 in0.5 mm
06:55 PM 52.9°F11.6°C 41.0°F5.0°C 64% Calm Calm -- 29.91 in1012.9 mb 0.00 in0.0 mm 0.00 in0.0 mm 0.02 in0.5 mm
07:00 PM 53.7°F12.1°C 40.0°F4.4°C 61% Calm Calm -- 29.91 in1012.9 mb 0.00 in0.0 mm 0.00 in0.0 mm 0.02 in0.5 mm
07:05 PM 53.4°F11.9°C 40.0°F4.4°C 61% Calm Calm -- 29.92 in1013.2 mb 0.00 in0.0 mm 0.00 in0.0 mm 0.02 in0.5 mm
07:10 PM 53.0°F11.7°C 41.0°F5.0°C 63% Calm Calm -- 29.91 in1012.9 mb 0.00 in0.0 mm 0.00 in0.0 mm 0.02 in0.5 mm
07:15 PM 52.3°F11.3°C 40.0°F4.4°C 64% Calm Calm -- 29.92 in1013.2 mb 0.00 in0.0 mm 0.00 in0.0 mm 0.02 in0.5 mm
07:20 PM 51.6°F10.9°C 40.0°F4.4°C 66% Calm Calm -- 29.92 in1013.2 mb 0.00 in0.0 mm 0.00 in0.0 mm 0.02 in0.5 mm
07:25 PM 51.1°F10.6°C 40.0°F4.4°C 67% Calm Calm -- 29.92 in1013.2 mb 0.00 in0.0 mm 0.00 in0.0 mm 0.02 in0.5 mm
07:30 PM 50.6°F10.3°C 40.0°F4.4°C 68% Calm Calm -- 29.93 in1013.5 mb 0.00 in0.0 mm 0.00 in0.0 mm 0.02 in0.5 mm
07:35 PM 50.2°F10.1°C 40.0°F4.4°C 68% Calm Calm -- 29.93 in1013.5 mb 0.00 in0.0 mm 0.00 in0.0 mm 0.02 in0.5 mm
07:40 PM 50.1°F10.1°C 40.0°F4.4°C 68% Calm Calm -- 29.93 in1013.5 mb 0.00 in0.0 mm 0.00 in0.0 mm 0.02 in0.5 mm
07:45 PM 49.9°F9.9°C 40.0°F4.4°C 68% Calm Calm -- 29.93 in1013.5 mb 0.00 in0.0 mm 0.00 in0.0 mm 0.02 in0.5 mm
07:50 PM 49.7°F9.8°C 39.0°F3.9°C 68% Calm Calm -- 29.94 in1013.9 mb 0.00 in0.0 mm 0.00 in0.0 mm 0.02 in0.5 mm
07:55 PM 49.7°F9.8°C 39.0°F3.9°C 68% Calm Calm -- 29.94 in1013.9 mb 0.00 in0.0 mm 0.00 in0.0 mm 0.02 in0.5 mm
08:00 PM 49.6°F9.8°C 39.0°F3.9°C 68% Calm Calm -- 29.94 in1013.9 mb 0.00 in0.0 mm 0.00 in0.0 mm 0.02 in0.5 mm
08:05 PM 49.5°F9.7°C 39.0°F3.9°C 68% Calm Calm -- 29.94 in1013.9 mb 0.00 in0.0 mm 0.00 in0.0 mm 0.02 in0.5 mm
08:10 PM 49.3°F9.6°C 39.0°F3.9°C 68% Calm Calm -- 29.94 in1013.9 mb 0.00 in0.0 mm 0.00 in0.0 mm 0.02 in0.5 mm
08:15 PM 49.0°F9.4°C 39.0°F3.9°C 68% Calm Calm -- 29.94 in1013.9 mb 0.00 in0.0 mm 0.00 in0.0 mm 0.02 in0.5 mm
08:20 PM 48.8°F9.3°C 39.0°F3.9°C 69% Calm Calm -- 29.94 in1013.9 mb 0.00 in0.0 mm 0.00 in0.0 mm 0.02 in0.5 mm
08:25 PM 48.4°F9.1°C 39.0°F3.9°C 69% Calm Calm -- 29.95 in1014.2 mb 0.00 in0.0 mm 0.00 in0.0 mm 0.02 in0.5 mm
08:30 PM 48.2°F9.0°C 38.0°F3.3°C 69% Calm Calm -- 29.95 in1014.2 mb 0.00 in0.0 mm 0.00 in0.0 mm 0.02 in0.5 mm
08:35 PM 47.9°F8.8°C 38.0°F3.3°C 69% Calm Calm -- 29.95 in1014.2 mb 0.00 in0.0 mm 0.00 in0.0 mm 0.02 in0.5 mm
08:40 PM 47.9°F8.8°C 39.0°F3.9°C 70% Calm Calm -- 29.95 in1014.2 mb 0.00 in0.0 mm 0.00 in0.0 mm 0.02 in0.5 mm
08:45 PM 47.9°F8.8°C 39.0°F3.9°C 71% Calm Calm -- 29.95 in1014.2 mb 0.00 in0.0 mm 0.00 in0.0 mm 0.02 in0.5 mm
08:50 PM 47.8°F8.8°C 39.0°F3.9°C 71% Calm Calm -- 29.95 in1014.2 mb 0.00 in0.0 mm 0.00 in0.0 mm 0.02 in0.5 mm
08:55 PM 47.6°F8.7°C 39.0°F3.9°C 71% Calm Calm -- 29.95 in1014.2 mb 0.00 in0.0 mm 0.00 in0.0 mm 0.02 in0.5 mm
09:00 PM 47.3°F8.5°C 38.0°F3.3°C 71% Calm Calm -- 29.95 in1014.2 mb 0.00 in0.0 mm 0.00 in0.0 mm 0.02 in0.5 mm
09:05 PM 47.4°F8.6°C 39.0°F3.9°C 73% Calm Calm -- 29.95 in1014.2 mb 0.00 in0.0 mm 0.00 in0.0 mm 0.02 in0.5 mm
09:10 PM 47.4°F8.6°C 39.0°F3.9°C 73% Calm Calm -- 29.95 in1014.2 mb 0.00 in0.0 mm 0.00 in0.0 mm 0.02 in0.5 mm
09:15 PM 47.3°F8.5°C 39.0°F3.9°C 73% Calm Calm -- 29.95 in1014.2 mb 0.00 in0.0 mm 0.00 in0.0 mm 0.02 in0.5 mm
09:20 PM 47.0°F8.3°C 39.0°F3.9°C 73% Calm Calm -- 29.95 in1014.2 mb 0.00 in0.0 mm 0.00 in0.0 mm 0.02 in0.5 mm
09:25 PM 47.0°F8.3°C 39.0°F3.9°C 73% Calm Calm -- 29.95 in1014.2 mb 0.00 in0.0 mm 0.00 in0.0 mm 0.02 in0.5 mm
09:30 PM 46.8°F8.2°C 39.0°F3.9°C 74% Calm Calm -- 29.95 in1014.2 mb 0.00 in0.0 mm 0.00 in0.0 mm 0.02 in0.5 mm
09:35 PM 46.9°F8.3°C 39.0°F3.9°C 75% Calm Calm -- 29.95 in1014.2 mb 0.00 in0.0 mm 0.00 in0.0 mm 0.02 in0.5 mm
09:40 PM 46.7°F8.2°C 39.0°F3.9°C 75% Calm Calm -- 29.96 in1014.6 mb 0.00 in0.0 mm 0.00 in0.0 mm 0.02 in0.5 mm
09:45 PM 46.6°F8.1°C 39.0°F3.9°C 75% Calm Calm -- 29.96 in1014.6 mb 0.00 in0.0 mm 0.00 in0.0 mm 0.02 in0.5 mm
09:50 PM 46.7°F8.2°C 40.0°F4.4°C 76% Calm Calm -- 29.95 in1014.2 mb 0.00 in0.0 mm 0.00 in0.0 mm 0.02 in0.5 mm
09:55 PM 46.5°F8.1°C 39.0°F3.9°C 76% Calm Calm -- 29.96 in1014.6 mb 0.00 in0.0 mm 0.00 in0.0 mm 0.02 in0.5 mm
10:00 PM 46.7°F8.2°C 40.0°F4.4°C 76% Calm Calm -- 29.96 in1014.6 mb 0.00 in0.0 mm 0.00 in0.0 mm 0.02 in0.5 mm
10:05 PM 46.6°F8.1°C 39.0°F3.9°C 76% Calm Calm -- 29.96 in1014.6 mb 0.00 in0.0 mm 0.00 in0.0 mm 0.02 in0.5 mm
10:10 PM 46.5°F8.1°C 39.0°F3.9°C 76% Calm Calm -- 29.96 in1014.6 mb 0.00 in0.0 mm 0.00 in0.0 mm 0.02 in0.5 mm
10:15 PM 46.2°F7.9°C 39.0°F3.9°C 76% Calm Calm -- 29.96 in1014.6 mb 0.00 in0.0 mm 0.00 in0.0 mm 0.02 in0.5 mm
10:20 PM 45.9°F7.7°C 39.0°F3.9°C 76% Calm Calm -- 29.96 in1014.6 mb 0.00 in0.0 mm 0.00 in0.0 mm 0.02 in0.5 mm
10:25 PM 45.8°F7.7°C 39.0°F3.9°C 76% Calm Calm -- 29.96 in1014.6 mb 0.00 in0.0 mm 0.00 in0.0 mm 0.02 in0.5 mm
10:30 PM 46.0°F7.8°C 39.0°F3.9°C 77% Calm Calm -- 29.96 in1014.6 mb 0.00 in0.0 mm 0.00 in0.0 mm 0.02 in0.5 mm
10:35 PM 46.0°F7.8°C 39.0°F3.9°C 76% Calm Calm -- 29.96 in1014.6 mb 0.00 in0.0 mm 0.00 in0.0 mm 0.02 in0.5 mm
10:40 PM 45.9°F7.7°C 39.0°F3.9°C 76% Calm Calm -- 29.97 in1014.9 mb 0.00 in0.0 mm 0.00 in0.0 mm 0.02 in0.5 mm
10:45 PM 45.9°F7.7°C 39.0°F3.9°C 77% Calm Calm -- 29.97 in1014.9 mb 0.00 in0.0 mm 0.00 in0.0 mm 0.02 in0.5 mm
10:50 PM 45.7°F7.6°C 39.0°F3.9°C 77% Calm Calm -- 29.97 in1014.9 mb 0.00 in0.0 mm 0.00 in0.0 mm 0.02 in0.5 mm
10:55 PM 45.4°F7.4°C 38.0°F3.3°C 76% Calm Calm -- 29.97 in1014.9 mb 0.00 in0.0 mm 0.00 in0.0 mm 0.02 in0.5 mm
11:00 PM 45.3°F7.4°C 39.0°F3.9°C 77% Calm Calm -- 29.97 in1014.9 mb 0.00 in0.0 mm 0.00 in0.0 mm 0.00 in0.0 mm
11:05 PM 45.8°F7.7°C 39.0°F3.9°C 77% Calm Calm -- 29.97 in1014.9 mb 0.00 in0.0 mm 0.00 in0.0 mm 0.00 in0.0 mm
11:10 PM 45.8°F7.7°C 39.0°F3.9°C 77% Calm Calm -- 29.97 in1014.9 mb 0.00 in0.0 mm 0.00 in0.0 mm 0.00 in0.0 mm
11:15 PM 45.6°F7.6°C 39.0°F3.9°C 77% Calm Calm -- 29.97 in1014.9 mb 0.00 in0.0 mm 0.00 in0.0 mm 0.00 in0.0 mm
11:20 PM 45.5°F7.5°C 39.0°F3.9°C 77% Calm Calm -- 29.97 in1014.9 mb 0.00 in0.0 mm 0.00 in0.0 mm 0.00 in0.0 mm
11:25 PM 45.6°F7.6°C 39.0°F3.9°C 77% Calm Calm -- 29.97 in1014.9 mb 0.00 in0.0 mm 0.00 in0.0 mm 0.00 in0.0 mm
11:30 PM 45.3°F7.4°C 38.0°F3.3°C 76% Calm Calm -- 29.97 in1014.9 mb 0.00 in0.0 mm 0.00 in0.0 mm 0.00 in0.0 mm
11:35 PM 45.1°F7.3°C 38.0°F3.3°C 77% Calm Calm -- 29.97 in1014.9 mb 0.00 in0.0 mm 0.00 in0.0 mm 0.00 in0.0 mm
11:40 PM 44.9°F7.2°C 38.0°F3.3°C 77% Calm Calm -- 29.96 in1014.6 mb 0.00 in0.0 mm 0.00 in0.0 mm 0.00 in0.0 mm
11:45 PM 44.7°F7.1°C 38.0°F3.3°C 77% Calm Calm -- 29.97 in1014.9 mb 0.00 in0.0 mm 0.00 in0.0 mm 0.00 in0.0 mm
11:50 PM 44.6°F7.0°C 38.0°F3.3°C 77% Calm Calm -- 29.97 in1014.9 mb 0.00 in0.0 mm 0.00 in0.0 mm 0.00 in0.0 mm
11:55 PM 44.8°F7.1°C 38.0°F3.3°C 77% Calm Calm -- 29.97 in1014.9 mb 0.00 in0.0 mm 0.00 in0.0 mm 0.00 in0.0 mm